Time;durP1;ratioP1;P1;durP2;ratioP2;P2;SDS_P1;SDS_P2;PMS_P1;PMS_P2;Temp;Humidity;BMP_temperature;BMP_pressure;BME280_temperature;BME280_humidity;BME280_pressure;Samples;Min_cycle;Max_cycle;Signal;HPM_P1;HPM_P2
2021/05/29 00:01:47;;;;;;;9.52;7.45;;;15.40;99.90;;;15.70;66.51;102339.06;5077314;28;20543;-67
2021/05/29 00:04:16;;;;;;;9.13;8.15;;;15.50;99.90;;;15.88;66.61;102371.06;5077352;28;20404;-67
2021/05/29 00:06:44;;;;;;;8.88;7.95;;;15.50;99.90;;;15.90;66.57;102366.59;5093734;28;20044;-67
2021/05/29 00:09:12;;;;;;;8.65;7.78;;;15.60;99.90;;;15.96;66.19;102365.69;5095146;28;20052;-67
2021/05/29 00:11:41;;;;;;;9.50;7.93;;;15.60;99.90;;;15.98;66.05;102363.91;5094443;28;20047;-67
2021/05/29 00:14:09;;;;;;;13.57;8.68;;;15.70;99.90;;;15.90;65.82;102357.69;5095089;28;20089;-67
2021/05/29 00:16:37;;;;;;;10.50;8.18;;;15.70;99.90;;;15.98;65.80;102374.59;5077026;28;20055;-66
2021/05/29 00:19:05;;;;;;;10.25;7.80;;;15.70;99.90;;;16.02;65.81;102373.69;5077020;28;20105;-67
2021/05/29 00:21:34;;;;;;;9.35;8.23;;;15.70;99.90;;;16.06;65.78;102378.13;5077037;28;20048;-67
2021/05/29 00:24:02;;;;;;;9.30;8.38;;;15.70;99.90;;;16.11;65.57;102382.56;5095068;28;20040;-67
2021/05/29 00:26:30;;;;;;;9.65;8.70;;;15.80;99.90;;;16.03;65.62;102379.03;5076468;28;20418;-67
2021/05/29 00:28:58;;;;;;;9.82;8.02;;;15.70;99.90;;;16.02;65.58;102379.94;5095075;28;20055;-67
2021/05/29 00:31:26;;;;;;;9.77;8.02;;;15.70;99.90;;;16.02;65.63;102377.25;5094725;28;20456;-67
2021/05/29 00:33:55;;;;;;;10.10;8.10;;;15.70;99.90;;;16.03;65.66;102389.69;5094673;28;20465;-67
2021/05/29 00:36:22;;;;;;;9.13;8.10;;;15.70;99.90;;;15.95;65.97;102377.28;5095280;28;20048;-67
2021/05/29 00:38:50;;;;;;;9.10;8.30;;;15.70;99.90;;;16.05;65.76;102384.34;5095127;28;20048;-67
2021/05/29 00:41:20;;;;;;;8.35;7.55;;;15.80;99.90;;;15.98;65.76;102387.94;5094579;28;20044;-67
2021/05/29 00:43:48;;;;;;;8.63;7.72;;;15.70;99.90;;;15.91;65.83;102392.38;5076516;28;20409;-68
2021/05/29 00:46:17;;;;;;;10.02;8.55;;;15.70;99.90;;;15.82;65.90;102379.06;5076469;28;20062;-68
2021/05/29 00:48:45;;;;;;;9.38;8.48;;;15.60;99.90;;;15.82;66.09;102395.09;5094685;28;20036;-67
2021/05/29 00:51:13;;;;;;;10.80;8.48;;;15.60;99.90;;;15.82;66.15;102395.09;5094684;28;20084;-67
2021/05/29 00:53:40;;;;;;;11.13;8.65;;;15.50;99.90;;;15.78;66.46;102408.41;5076326;28;20511;-68
2021/05/29 00:56:09;;;;;;;9.32;8.27;;;15.50;99.90;;;15.71;66.49;102394.22;5094169;28;20475;-67
2021/05/29 00:58:37;;;;;;;12.00;8.77;;;15.40;99.90;;;15.69;66.50;102398.66;5094522;28;20074;-67
2021/05/29 01:01:05;;;;;;;9.52;8.57;;;15.40;99.90;;;15.63;66.70;102401.31;5094398;28;20047;-68
2021/05/29 01:03:36;;;;;;;11.73;8.60;;;15.40;99.90;;;15.42;67.05;102372.00;5094009;28;20123;-67
2021/05/29 01:06:07;;;;;;;9.90;8.90;;;15.30;99.90;;;15.53;67.25;102393.31;5094062;28;20052;-67
2021/05/29 01:08:35;;;;;;;12.68;8.90;;;15.30;99.90;;;15.30;67.29;102379.97;5094295;28;20052;-67
2021/05/29 01:11:03;;;;;;;9.55;8.27;;;15.20;99.90;;;15.29;67.81;102399.53;5076053;28;20059;-67
2021/05/29 01:13:32;;;;;;;10.35;9.15;;;15.00;99.90;;;15.23;67.76;102407.50;5076038;28;20137;-67
2021/05/29 01:16:05;;;;;;;10.53;9.03;;;15.00;99.90;;;15.12;68.19;102390.59;5075978;28;20481;-67
2021/05/29 01:18:34;;;;;;;11.02;9.70;;;15.00;99.90;;;15.06;68.22;102393.28;5093934;28;20040;-68
2021/05/29 01:21:04;;;;;;;13.20;10.27;;;14.90;99.90;;;15.00;68.62;102402.13;5075812;28;20135;-67
2021/05/29 01:23:33;;;;;;;11.25;10.15;;;14.80;99.90;;;14.97;68.93;102385.25;5092846;28;20051;-67
2021/05/29 01:26:01;;;;;;;11.48;10.07;;;14.80;99.90;;;15.04;68.93;102401.25;5093776;28;20379;-67
2021/05/29 01:28:31;;;;;;;12.13;10.32;;;14.80;99.90;;;14.93;68.95;102378.13;5093838;28;20101;-67
2021/05/29 01:31:03;;;;;;;11.98;10.77;;;14.80;99.90;;;14.97;69.02;102407.47;5093485;28;20055;-68
2021/05/29 01:33:34;;;;;;;13.43;10.57;;;14.70;99.90;;;14.87;69.43;102405.66;5094160;28;20117;-67
2021/05/29 01:36:06;;;;;;;13.90;11.45;;;14.70;99.90;;;14.86;69.61;102401.22;5075497;28;20059;-67
2021/05/29 01:38:37;;;;;;;14.30;11.27;;;14.70;99.90;;;14.73;69.93;102404.72;5075552;28;20487;-67
2021/05/29 01:41:07;;;;;;;12.55;10.90;;;14.50;99.90;;;14.76;70.08;102399.41;5075517;28;20435;-68
2021/05/29 01:43:37;;;;;;;13.15;10.95;;;14.60;99.90;;;14.68;70.06;102395.84;5074833;28;20048;-68
2021/05/29 01:46:05;;;;;;;12.05;10.80;;;14.50;99.90;;;14.56;70.12;102381.56;5075263;28;20076;-67
2021/05/29 01:48:37;;;;;;;13.48;11.25;;;14.40;99.90;;;14.66;70.50;102408.25;5093434;28;20044;-67
2021/05/29 01:51:06;;;;;;;12.48;11.18;;;14.40;99.90;;;14.65;70.66;102413.59;5075124;28;20055;-67
2021/05/29 01:53:35;;;;;;;13.88;9.95;;;14.40;99.90;;;14.58;70.80;102411.75;5075212;28;20125;-67
2021/05/29 01:56:05;;;;;;;11.68;10.45;;;14.40;99.90;;;14.66;70.64;102407.34;5092998;28;20055;-67
2021/05/29 01:58:34;;;;;;;11.05;10.02;;;14.40;99.90;;;14.68;70.44;102406.50;5075037;28;20160;-67
2021/05/29 02:01:02;;;;;;;15.82;11.25;;;14.40;99.90;;;14.68;70.54;102410.91;5074979;28;20082;-68
2021/05/29 02:03:30;;;;;;;12.27;11.07;;;14.40;99.90;;;14.68;70.40;102411.81;5074872;28;20405;-67
2021/05/29 02:05:59;;;;;;;12.20;10.90;;;14.40;99.90;;;14.26;70.27;102329.09;5093213;28;20032;-68
2021/05/29 02:08:27;;;;;;;13.38;9.98;;;14.50;99.90;;;14.74;70.22;102411.84;5093004;28;20105;-68
2021/05/29 02:10:56;;;;;;;13.27;10.32;;;14.50;99.90;;;14.82;70.31;102410.09;5093108;28;20044;-67
2021/05/29 02:13:26;;;;;;;13.35;10.85;;;14.50;99.90;;;14.75;69.69;102397.63;5092739;28;20118;-68
2021/05/29 02:15:55;;;;;;;13.00;10.70;;;14.60;99.90;;;14.72;69.69;102399.38;5093060;28;20048;-68
2021/05/29 02:18:24;;;;;;;11.48;10.27;;;14.60;99.90;;;14.85;69.58;102415.41;5092594;28;20048;-68
2021/05/29 02:20:58;;;;;;;11.63;10.30;;;14.50;99.90;;;14.76;69.33;102394.09;5092664;28;20555;-67
2021/05/29 02:23:28;;;;;;;13.88;10.70;;;14.60;99.90;;;14.85;69.65;102423.41;5092841;28;20075;-68
2021/05/29 02:26:01;;;;;;;11.55;10.35;;;14.60;99.90;;;14.71;69.38;102419.81;5092540;28;20435;-68
2021/05/29 02:28:30;;;;;;;11.50;10.32;;;14.50;99.90;;;14.67;69.35;102430.47;5074763;28;20077;-68
2021/05/29 02:30:59;;;;;;;12.20;9.68;;;14.40;99.90;;;14.68;69.29;102411.81;5092419;28;20040;-67
2021/05/29 02:33:27;;;;;;;12.82;10.50;;;14.50;99.90;;;14.78;69.21;102420.72;5092268;28;20044;-68
2021/05/29 02:35:56;;;;;;;11.93;10.35;;;14.50;99.90;;;14.51;68.65;102397.56;5092430;28;20537;-67
2021/05/29 02:38:25;;;;;;;12.13;10.82;;;14.40;99.90;;;14.30;68.69;102363.72;5092388;28;20448;-68
2021/05/29 02:40:53;;;;;;;12.63;10.40;;;14.40;99.90;;;14.42;68.67;102390.41;5092625;28;20056;-68
2021/05/29 02:43:22;;;;;;;11.73;9.93;;;14.30;99.90;;;14.62;68.78;102424.22;5092481;28;20048;-68
2021/05/29 02:45:51;;;;;;;10.57;9.57;;;14.30;99.90;;;14.60;68.54;102418.88;5092439;28;20063;-69
2021/05/29 02:48:19;;;;;;;10.55;8.95;;;14.30;99.90;;;14.49;68.36;102415.28;5092466;28;20036;-67
2021/05/29 02:50:47;;;;;;;10.18;9.10;;;14.30;99.90;;;14.57;68.31;102410.91;5092265;28;20097;-67
2021/05/29 02:53:17;;;;;;;9.52;8.52;;;14.30;99.90;;;14.62;68.13;102419.78;5074365;28;20048;-67
2021/05/29 02:55:45;;;;;;;10.50;8.27;;;14.30;99.90;;;14.61;67.83;102418.00;5074085;28;20052;-67
2021/05/29 02:58:13;;;;;;;9.73;8.43;;;14.30;99.90;;;14.57;67.90;102407.34;5092161;28;20374;-68
2021/05/29 03:00:44;;;;;;;9.02;8.13;;;14.40;99.90;;;14.46;67.64;102388.63;5074120;28;20160;-69
2021/05/29 03:03:13;;;;;;;10.02;7.40;;;14.40;99.90;;;14.66;67.31;102423.34;5074056;28;20067;-68
2021/05/29 03:05:44;;;;;;;11.18;8.15;;;14.40;99.90;;;14.63;67.53;102424.25;5092266;28;20052;-68
2021/05/29 03:08:13;;;;;;;9.02;8.18;;;14.40;99.90;;;14.62;67.33;102427.78;5092483;28;20048;-67
2021/05/29 03:10:44;;;;;;;9.35;8.18;;;14.40;99.90;;;14.65;67.34;102453.53;5074152;28;20052;-67
2021/05/29 03:13:13;;;;;;;12.90;8.05;;;14.30;99.90;;;14.64;67.21;102431.34;5092090;28;20382;-67
2021/05/29 03:15:41;;;;;;;9.30;8.23;;;14.40;99.90;;;14.56;67.36;102417.09;5092241;28;20052;-67
2021/05/29 03:18:10;;;;;;;8.48;7.60;;;14.40;99.90;;;14.46;67.37;102405.50;5090933;28;20105;-68
2021/05/29 03:20:38;;;;;;;9.00;8.10;;;14.30;99.90;;;14.60;67.63;102429.53;5091788;28;20047;-68
2021/05/29 03:23:07;;;;;;;9.32;8.05;;;14.30;99.90;;;14.59;67.67;102430.44;5091872;28;20424;-67
2021/05/29 03:25:35;;;;;;;13.43;9.15;;;14.30;99.90;;;14.53;67.78;102459.69;5091545;28;20109;-67
2021/05/29 03:28:04;;;;;;;9.98;8.98;;;14.30;99.90;;;14.56;67.91;102435.72;5091965;28;20051;-67
2021/05/29 03:30:33;;;;;;;10.63;8.18;;;14.30;99.90;;;14.53;67.91;102433.06;5091991;28;20048;-67
2021/05/29 03:33:02;;;;;;;11.10;9.02;;;14.30;99.90;;;14.55;67.62;102435.72;5073600;28;20048;-67
2021/05/29 03:35:30;;;;;;;10.10;8.55;;;14.30;99.90;;;14.39;67.97;102432.09;5091783;28;20503;-68
2021/05/29 03:37:58;;;;;;;10.95;8.60;;;14.20;99.90;;;14.41;68.18;102439.22;5073730;28;20052;-67
2021/05/29 03:40:26;;;;;;;10.75;9.15;;;14.20;99.90;;;14.37;68.28;102436.53;5091934;28;20052;-67
2021/05/29 03:42:54;;;;;;;11.25;9.23;;;14.10;99.90;;;14.41;68.04;102439.22;5073719;28;20044;-67
2021/05/29 03:45:23;;;;;;;10.80;9.27;;;14.10;99.90;;;14.43;68.02;102452.53;5074085;28;20048;-67
2021/05/29 03:47:51;;;;;;;9.50;8.50;;;14.20;99.90;;;14.39;68.04;102445.41;5095567;28;20051;-68
2021/05/29 03:50:24;;;;;;;10.80;9.07;;;14.20;99.90;;;14.28;67.93;102417.84;5095409;28;20044;-67
2021/05/29 03:52:53;;;;;;;9.88;8.88;;;14.20;99.90;;;14.44;67.77;102447.22;5096193;28;20048;-68
2021/05/29 03:55:23;;;;;;;9.35;8.38;;;14.20;99.90;;;14.25;68.04;102408.03;5095584;28;20043;-67
2021/05/29 03:57:52;;;;;;;12.27;9.50;;;14.20;99.90;;;14.29;67.99;102425.84;5095242;28;20392;-67
2021/05/29 04:00:23;;;;;;;10.35;8.30;;;14.20;99.90;;;14.42;67.75;102437.44;5095455;28;20040;-67
2021/05/29 04:02:51;;;;;;;9.38;8.48;;;14.20;99.90;;;14.44;67.50;102441.00;5095646;28;20052;-67
2021/05/29 04:05:22;;;;;;;9.57;8.60;;;14.20;99.90;;;14.46;67.58;102441.88;5077168;28;20051;-67
2021/05/29 04:07:52;;;;;;;9.45;8.43;;;14.20;99.90;;;14.42;67.46;102434.75;5095377;28;20052;-67
2021/05/29 04:10:23;;;;;;;10.40;8.80;;;14.30;99.90;;;14.28;67.35;102434.72;5095028;28;20051;-67
2021/05/29 04:12:51;;;;;;;11.57;8.98;;;14.20;99.90;;;14.37;67.66;102442.75;5095312;28;20032;-67
2021/05/29 04:15:19;;;;;;;14.73;8.60;;;14.10;99.90;;;14.37;67.38;102447.19;5095342;28;20101;-67
2021/05/29 04:17:48;;;;;;;11.40;8.48;;;14.10;99.90;;;14.43;67.62;102453.44;5076926;28;20043;-67
2021/05/29 04:20:19;;;;;;;12.73;8.43;;;14.10;99.90;;;14.44;67.41;102457.88;5077003;28;20435;-67
2021/05/29 04:22:48;;;;;;;9.18;8.23;;;14.20;99.90;;;14.46;67.28;102449.88;5095252;28;20044;-67
2021/05/29 04:25:18;;;;;;;9.85;8.10;;;14.20;99.90;;;14.37;67.47;102431.22;5067021;28;20052;-67
2021/05/29 04:27:47;;;;;;;;;;;14.20;99.90;;;14.58;67.11;102457.94;5055352;28;20103;-67
2021/05/29 04:30:19;;;;;;;11.27;9.48;;;14.30;99.90;;;14.60;67.16;102452.59;5053443;28;19925;-67
2021/05/29 04:32:47;;;;;;;12.13;9.02;;;14.30;99.90;;;14.56;66.93;102435.72;5054873;28;20052;-67
2021/05/29 04:35:18;;;;;;;9.27;8.38;;;14.40;99.90;;;14.70;66.86;102452.66;5054518;28;20048;-68
2021/05/29 04:37:48;;;;;;;9.35;8.38;;;14.40;99.90;;;14.73;66.78;102460.66;5054723;28;20064;-68
2021/05/29 04:40:19;;;;;;;9.85;8.85;;;14.40;99.90;;;14.78;66.31;102461.59;5053448;28;20406;-68
2021/05/29 04:42:49;;;;;;;9.90;8.75;;;14.50;99.90;;;14.78;66.03;102458.91;5054281;28;20045;-67
2021/05/29 04:45:18;;;;;;;10.02;9.02;;;14.50;99.90;;;14.45;65.89;102397.53;5053091;28;20045;-68
2021/05/29 04:47:46;;;;;;;9.75;8.48;;;14.60;99.90;;;14.79;65.63;102466.00;5054003;28;20041;-67
2021/05/29 04:50:15;;;;;;;9.65;8.32;;;14.50;99.90;;;14.84;65.53;102460.72;5053989;28;20453;-67
2021/05/29 04:52:44;;;;;;;10.88;8.98;;;14.50;99.90;;;14.68;65.63;102470.41;5054484;28;20049;-67
2021/05/29 04:55:16;;;;;;;11.45;8.88;;;14.50;99.90;;;14.67;66.05;102467.75;5052977;28;20049;-67
2021/05/29 04:57:44;;;;;;;8.70;7.90;;;14.40;99.90;;;14.49;66.25;102468.56;5054235;28;20052;-67
2021/05/29 05:00:17;;;;;;;9.27;8.00;;;14.30;99.90;;;14.42;66.79;102454.31;5054557;28;20115;-67
2021/05/29 05:02:45;;;;;;;9.27;8.45;;;14.20;99.90;;;14.41;66.80;102447.22;5053842;28;20056;-67
2021/05/29 05:05:14;;;;;;;9.88;8.88;;;14.30;99.90;;;14.30;67.28;102461.34;5054008;28;20047;-67
2021/05/29 05:07:42;;;;;;;10.20;9.18;;;14.10;99.90;;;14.32;67.18;102464.91;5053794;28;20045;-67
2021/05/29 05:10:12;;;;;;;9.48;8.32;;;14.10;99.90;;;14.24;67.52;102467.50;5052595;28;20487;-68
2021/05/29 05:12:40;;;;;;;9.88;8.98;;;14.00;99.90;;;13.90;69.91;102464.59;5053674;28;20107;-67
2021/05/29 05:15:11;;;;;;;9.95;8.95;;;13.70;99.90;;;13.99;69.22;102470.88;5053346;28;20059;-67
2021/05/29 05:17:39;;;;;;;9.57;8.77;;;13.80;99.90;;;14.17;68.84;102478.97;5052316;28;20053;-67
2021/05/29 05:20:08;;;;;;;11.18;8.68;;;13.80;99.90;;;14.24;68.86;102479.91;5053856;28;20048;-67
2021/05/29 05:22:36;;;;;;;8.68;7.90;;;13.90;99.90;;;14.42;67.69;102474.69;5053727;28;20041;-67
2021/05/29 05:25:07;;;;;;;8.98;8.07;;;14.00;99.90;;;14.45;67.26;102478.31;5063204;28;20060;-66
2021/05/29 05:27:36;;;;;;;14.82;8.23;;;14.20;99.90;;;14.49;68.07;102484.53;5093831;28;20052;-68
2021/05/29 05:30:07;;;;;;;8.23;7.43;;;14.10;99.90;;;14.70;67.19;102484.63;5075688;28;20448;-67
2021/05/29 05:32:36;;;;;;;9.32;8.15;;;14.40;99.90;;;14.63;65.98;102482.84;5093506;28;20075;-68
2021/05/29 05:35:08;;;;;;;9.32;7.70;;;14.50;99.90;;;14.86;66.72;102489.16;5075234;28;20058;-67
2021/05/29 05:37:36;;;;;;;9.40;7.78;;;14.60;99.90;;;15.03;65.82;102492.75;5093807;28;20113;-68
2021/05/29 05:40:06;;;;;;;9.82;7.75;;;14.70;99.90;;;14.93;65.46;102476.72;5075489;28;20047;-67
2021/05/29 05:42:34;;;;;;;8.93;7.82;;;14.80;99.90;;;15.09;65.15;102502.56;5093304;28;20087;-67
2021/05/29 05:45:05;;;;;;;8.38;7.57;;;14.90;99.90;;;14.91;64.98;102474.06;5075317;28;20052;-67
2021/05/29 05:47:33;;;;;;;9.65;8.10;;;14.90;99.90;;;15.09;65.33;102478.56;5093678;28;20048;-67
2021/05/29 05:50:01;;;;;;;9.93;7.65;;;15.00;99.90;;;15.02;65.18;102514.94;5093535;28;20043;-67
2021/05/29 05:52:29;;;;;;;9.30;8.18;;;14.90;99.90;;;15.03;65.88;102516.75;5093181;28;20097;-67
2021/05/29 05:54:57;;;;;;;9.55;8.55;;;14.80;99.90;;;14.88;66.51;102500.72;5075185;28;20203;-67
2021/05/29 05:57:25;;;;;;;10.35;8.60;;;14.70;99.90;;;15.29;66.44;102520.38;5093398;28;20040;-67
2021/05/29 05:59:53;;;;;;;12.90;7.95;;;15.00;99.90;;;15.47;65.77;102529.34;5075045;28;20552;-68
2021/05/29 06:02:22;;;;;;;9.90;8.90;;;15.20;99.90;;;15.42;65.29;102541.78;5093191;28;20101;-68
2021/05/29 06:04:50;;;;;;;9.13;8.23;;;15.20;99.90;;;15.27;66.66;102523.94;5093101;28;20114;-68
2021/05/29 06:07:18;;;;;;;7.97;7.28;;;15.10;99.90;;;15.57;65.40;102524.03;5093477;28;20044;-68
2021/05/29 06:09:46;;;;;;;8.20;7.25;;;15.30;99.90;;;15.15;65.39;102531.91;5074377;28;20052;-68
2021/05/29 06:12:14;;;;;;;7.60;6.90;;;15.10;99.90;;;15.10;65.02;102529.19;5093181;28;20382;-69
2021/05/29 06:20:16;;;;;;;7.30;6.45;;;14.90;99.90;;;15.43;63.11;102530.25;5074805;28;20414;-68
2021/05/29 06:22:44;;;;;;;7.05;6.43;;;15.10;99.90;;;15.48;62.02;102508.03;5092845;28;20094;-67
2021/05/29 06:25:16;;;;;;;8.30;7.50;;;15.30;99.90;;;15.52;62.13;102543.59;5092242;28;20052;-68
2021/05/29 06:27:44;;;;;;;7.85;7.07;;;15.30;99.90;;;15.71;61.56;102542.72;5074721;28;20079;-68
2021/05/29 06:30:14;;;;;;;8.90;6.82;;;15.50;99.90;;;15.65;60.48;102564.06;5092523;28;20440;-68
2021/05/29 06:32:42;;;;;;;9.63;6.93;;;15.50;99.90;;;15.06;62.08;102555.88;5092500;28;20043;-68
2021/05/29 06:35:13;;;;;;;8.50;7.60;;;15.10;99.90;;;14.87;63.61;102557.53;5092768;28;20335;-68
2021/05/29 06:37:41;;;;;;;10.50;7.40;;;14.80;99.90;;;15.19;63.43;102553.22;5092802;28;20048;-68
2021/05/29 06:40:10;;;;;;;9.10;7.32;;;14.90;99.90;;;15.34;62.95;102563.06;5092535;28;20081;-68
2021/05/29 06:42:38;;;;;;;8.32;7.53;;;15.10;99.90;;;14.71;64.75;102555.66;5074205;28;20048;-68
2021/05/29 06:45:07;;;;;;;7.85;7.07;;;14.70;99.90;;;15.30;65.41;102564.84;5074187;28;20040;-68
2021/05/29 06:47:36;;;;;;;8.70;7.20;;;14.90;99.90;;;15.46;63.48;102564.91;5092488;28;20074;-67
2021/05/29 06:50:08;;;;;;;7.65;7.05;;;15.20;99.90;;;15.16;64.78;102531.91;5074406;28;20571;-68
2021/05/29 06:52:39;;;;;;;7.30;6.70;;;15.10;99.90;;;15.82;63.44;102556.97;5074419;28;20452;-68
2021/05/29 07:00:39;;;;;;;7.53;6.78;;;15.80;99.90;;;16.38;62.06;102548.94;5092489;28;20094;-70
2021/05/29 07:03:07;;;;;;;8.05;6.80;;;16.20;99.90;;;16.09;61.04;102455.53;5092312;28;20044;-69
2021/05/29 07:05:36;;;;;;;7.47;6.88;;;16.40;99.90;;;16.42;61.05;102574.75;5092190;28;20044;-68
2021/05/29 07:08:05;;;;;;;8.43;7.30;;;16.30;99.90;;;15.48;62.44;102564.03;5092266;28;20101;-70
2021/05/29 07:10:33;;;;;;;9.05;7.60;;;15.60;99.90;;;15.38;62.89;102517.75;5073982;28;20436;-70
2021/05/29 07:13:01;;;;;;;11.55;7.60;;;15.50;99.90;;;15.44;63.16;102575.59;5091890;28;20128;-69
2021/05/29 07:15:34;;;;;;;9.38;7.70;;;15.30;99.90;;;15.28;64.95;102587.94;5092388;28;20040;-70
2021/05/29 07:18:09;;;;;;;8.10;7.30;;;15.10;99.90;;;15.38;64.23;102583.53;5092367;28;20052;-73
2021/05/29 07:20:39;;;;;;;10.77;6.80;;;15.20;99.90;;;15.75;63.16;102569.44;5093524;28;20048;-71
2021/05/29 07:23:08;;;;;;;7.83;7.03;;;15.40;99.90;;;15.72;62.59;102553.41;5096592;28;20036;-70
2021/05/29 07:25:36;;;;;;;7.55;6.80;;;15.70;99.90;;;15.99;62.23;102580.13;5095765;28;20048;-76
2021/05/29 07:28:05;;;;;;;7.78;7.07;;;15.70;99.90;;;16.10;62.36;102580.13;5077955;28;20044;-69
2021/05/29 07:30:33;;;;;;;6.90;6.25;;;15.70;99.90;;;16.54;61.63;102573.03;5096136;28;20048;-70
2021/05/29 07:33:01;;;;;;;6.78;6.07;;;16.20;99.90;;;16.60;60.23;102581.03;5096057;28;20062;-74
2021/05/29 07:35:29;;;;;;;7.13;6.43;;;16.40;99.90;;;16.69;61.81;102558.72;5077776;28;20047;-69
2021/05/29 07:37:58;;;;;;;7.35;6.32;;;16.50;99.90;;;17.10;59.31;102597.81;5095938;28;20052;-71
2021/05/29 07:40:26;;;;;;;6.15;5.65;;;16.80;99.90;;;17.20;58.92;102571.94;5095980;28;20048;-69
2021/05/29 07:42:54;;;;;;;12.65;5.95;;;16.90;99.90;;;17.57;58.65;102588.72;5077712;28;20109;-71
2021/05/29 07:45:23;;;;;;;7.05;5.88;;;17.20;99.90;;;17.88;58.22;102582.28;5095848;28;20073;-74
2021/05/29 07:47:51;;;;;;;7.95;5.80;;;17.60;99.90;;;17.94;58.04;102588.47;5095910;28;20044;-74
2021/05/29 07:50:19;;;;;;;6.35;5.75;;;17.70;99.90;;;17.65;56.57;102598.47;5077676;28;20052;-71
2021/05/29 07:52:48;;;;;;;6.53;5.93;;;17.50;99.90;;;17.30;57.95;102596.84;5096111;28;20074;-70
2021/05/29 07:55:18;;;;;;;6.53;5.93;;;17.10;99.90;;;17.22;58.97;102521.09;5095479;28;20044;-72
2021/05/29 07:57:46;;;;;;;10.52;5.97;;;17.40;99.90;;;17.57;58.85;102586.03;5095583;28;20043;-70
2021/05/29 08:00:16;;;;;;;8.18;6.13;;;17.30;99.90;;;17.49;58.08;102602.16;5077519;28;20482;-71
2021/05/29 08:02:44;;;;;;;6.57;5.88;;;17.30;99.90;;;17.26;58.43;102593.31;5077471;28;20051;-70
2021/05/29 08:05:16;;;;;;;6.38;5.78;;;17.10;99.90;;;17.63;58.79;102605.66;5095273;28;20040;-70
2021/05/29 08:07:45;;;;;;;6.57;5.75;;;17.30;99.90;;;17.91;56.46;102595.63;5095648;28;20055;-71
2021/05/29 08:10:14;;;;;;;6.50;5.53;;;17.60;99.90;;;17.63;56.59;102605.66;5077248;28;20105;-70
2021/05/29 08:12:43;;;;;;;7.07;6.05;;;17.50;99.90;;;17.25;57.17;102593.31;5095117;28;20086;-70
2021/05/29 08:15:13;;;;;;;6.85;5.35;;;17.20;99.90;;;17.81;57.87;102605.50;5095389;28;20048;-68
2021/05/29 08:17:41;;;;;;;10.38;6.78;;;17.40;99.90;;;17.86;55.82;102605.50;5095406;28;20046;-70
2021/05/29 08:20:12;;;;;;;7.80;5.72;;;17.60;99.90;;;17.20;57.36;102617.41;5095317;28;20039;-70
2021/05/29 08:22:40;;;;;;;5.80;5.13;;;17.20;99.90;;;17.73;58.40;102611.84;5095228;28;20051;-70
2021/05/29 08:25:10;;;;;;;6.40;5.80;;;17.40;99.90;;;18.20;56.78;102608.81;5094407;28;20501;-70
2021/05/29 08:27:38;;;;;;;7.22;5.63;;;17.80;99.90;;;18.45;55.66;102622.03;5095036;28;20055;-70
2021/05/29 08:30:09;;;;;;;7.03;6.25;;;18.10;99.90;;;16.82;56.39;102507.03;5095059;28;20078;-69
2021/05/29 08:32:37;;;;;;;6.60;5.90;;;17.40;99.90;;;17.04;57.84;102616.56;5094310;28;20048;-69
2021/05/29 08:35:09;;;;;;;9.82;8.10;;;16.90;99.90;;;17.42;57.64;102589.63;5094684;28;20048;-69
2021/05/29 08:37:37;;;;;;;9.23;6.47;;;17.20;99.90;;;18.09;57.72;102608.91;5076846;28;20056;-69
2021/05/29 08:40:07;;;;;;;10.15;6.10;;;17.60;99.90;;;18.39;55.79;102616.69;5094852;28;20039;-69
2021/05/29 08:42:35;;;;;;;9.15;7.07;;;18.00;99.90;;;18.80;55.77;102624.38;5094844;28;20071;-69
2021/05/29 08:45:06;;;;;;;5.45;4.95;;;18.50;99.90;;;19.02;53.60;102627.72;5094727;28;20112;-69
2021/05/29 08:47:34;;;;;;;5.88;5.30;;;18.80;99.90;;;18.41;53.71;102620.25;5076356;28;20097;-70
2021/05/29 08:50:03;;;;;;;8.55;6.05;;;18.50;99.90;;;18.82;55.19;102635.97;5094703;28;20056;-69
2021/05/29 08:52:36;;;;;;;5.85;5.30;;;18.60;99.90;;;19.28;54.87;102623.81;5094613;28;20052;-70
2021/05/29 08:55:06;;;;;;;6.20;5.60;;;19.00;99.90;;;18.01;54.96;102626.81;5076407;28;20517;-69
2021/05/29 08:57:34;;;;;;;6.25;5.65;;;18.20;99.90;;;18.37;57.32;102623.84;5094497;28;20124;-70
2021/05/29 09:00:04;;;;;;;7.00;5.53;;;18.10;99.90;;;18.91;55.44;102627.84;5094533;28;20044;-69
2021/05/29 09:02:33;;;;;;;7.90;5.95;;;18.50;99.90;;;19.27;54.03;102630.09;5076239;28;20056;-69
2021/05/29 09:05:10;;;;;;;7.60;5.97;;;18.90;99.90;;;19.54;53.40;102639.63;5094187;28;20353;-69
2021/05/29 09:07:38;;;;;;;6.03;5.43;;;19.20;99.90;;;19.80;51.61;102634.81;5094386;28;20058;-69
2021/05/29 09:10:21;;;;;;;6.40;5.80;;;19.60;99.90;;;19.56;52.05;102643.19;5076138;28;20040;-69
2021/05/29 09:13:05;;;;;;;8.65;6.55;;;19.40;99.90;;;18.83;51.97;102643.13;5094705;28;20109;-70
2021/05/29 09:15:54;;;;;;;8.00;6.00;;;18.80;99.90;;;18.73;52.60;102626.25;5076021;28;20116;-69
2021/05/29 09:18:38;;;;;;;6.43;5.93;;;18.60;99.90;;;18.98;53.18;102639.38;5094429;28;20070;-69
2021/05/29 09:21:30;;;;;;;6.20;5.65;;;18.60;99.90;;;19.04;53.08;102550.78;5093822;28;20056;-70
2021/05/29 09:24:01;;;;;;;6.88;6.18;;;19.20;99.90;;;19.93;52.81;102673.13;5093814;28;20393;-70
2021/05/29 09:26:46;;;;;;;5.70;5.10;;;19.60;99.90;;;20.11;51.12;102648.69;5093841;28;20113;-70
2021/05/29 09:29:17;;;;;;;6.32;5.35;;;19.80;99.90;;;20.36;51.43;102650.09;5093732;28;20032;-69
2021/05/29 09:31:58;;;;;;;7.68;6.85;;;20.10;99.90;;;20.73;51.06;102645.84;5093425;28;20044;-69
2021/05/29 09:34:39;;;;;;;6.38;5.78;;;20.50;99.90;;;20.90;49.59;102653.63;5075388;28;20105;-69
2021/05/29 09:37:10;;;;;;;7.72;6.55;;;20.70;99.90;;;20.97;48.04;102647.22;5093476;28;20121;-69
2021/05/29 09:39:42;;;;;;;8.55;6.95;;;20.80;99.90;;;19.22;50.14;102634.63;5093757;28;20043;-70
2021/05/29 09:42:12;;;;;;;6.30;5.70;;;19.50;99.90;;;20.21;52.85;102669.16;5093617;28;20044;-69
2021/05/29 09:44:40;;;;;;;7.95;5.70;;;19.80;99.90;;;20.59;50.32;102654.19;5074374;28;20052;-70
2021/05/29 09:47:13;;;;;;;7.90;7.10;;;20.30;99.90;;;20.77;49.44;102647.56;5093316;28;20082;-69
2021/05/29 09:49:51;;;;;;;5.50;5.03;;;20.50;99.90;;;20.92;47.67;102651.81;5093228;28;20058;-69
2021/05/29 09:52:28;;;;;;;5.82;5.15;;;20.70;99.90;;;20.70;48.06;102551.78;5093269;28;20052;-70
2021/05/29 09:55:00;;;;;;;7.20;6.50;;;21.00;99.90;;;21.20;47.34;102650.38;5093498;28;20054;-72
2021/05/29 09:57:29;;;;;;;5.90;5.40;;;20.90;99.90;;;21.49;47.06;102650.66;5093554;28;20064;-75
2021/05/29 09:59:59;;;;;;;8.18;6.00;;;21.20;99.90;;;21.55;47.02;102645.16;5093105;28;20493;-74
2021/05/29 10:02:28;;;;;;;6.28;5.68;;;21.40;99.90;;;21.81;46.71;102659.00;5075036;28;20097;-74
2021/05/29 10:04:57;;;;;;;7.35;6.28;;;21.60;99.90;;;21.23;45.78;102583.94;5092977;28;20039;-71
2021/05/29 10:07:38;;;;;;;7.40;6.60;;;21.50;99.90;;;21.11;45.54;102650.56;5093131;28;20079;-67
2021/05/29 10:10:09;;;;;;;7.93;7.00;;;21.10;99.90;;;21.34;49.18;102653.69;5092872;28;20048;-67
2021/05/29 10:12:37;;;;;;;10.05;8.95;;;21.00;99.90;;;21.48;46.96;102670.47;5092971;28;20072;-68
2021/05/29 10:15:11;;;;;;;7.47;6.78;;;21.20;99.90;;;21.54;48.11;102663.13;5092825;28;20052;-70
2021/05/29 10:17:40;;;;;;;8.18;7.22;;;21.30;99.90;;;21.65;48.25;102668.28;5074713;28;20501;-70
2021/05/29 10:20:10;;;;;;;8.65;7.32;;;21.40;99.90;;;21.23;46.48;102661.09;5092950;28;20044;-68
2021/05/29 10:22:39;;;;;;;7.65;6.82;;;21.10;99.90;;;21.58;49.12;102660.38;5092895;28;20495;-69
2021/05/29 10:25:11;;;;;;;8.50;7.15;;;21.30;99.90;;;21.94;49.02;102659.59;5092752;28;20091;-76
2021/05/29 10:27:43;;;;;;;10.32;8.25;;;21.60;99.90;;;21.33;47.71;102662.69;5093012;28;20044;-79
2021/05/29 10:30:13;;;;;;;8.48;7.45;;;21.40;99.90;;;21.58;47.13;102653.19;5092690;28;20510;-77
2021/05/29 10:32:41;;;;;;;7.15;6.32;;;21.40;99.90;;;21.13;48.25;102648.72;5093095;28;20043;-76